Terminal Aerodrome Forecast
Issued by NWS

Home | Current Version | Previous Version | Graphics & Text | Print | Product List | Glossary Off
Versions: 1 2 3 4 5 6 7 8 9 10 11 12 13 14 15 16 17 18 19 20 21 22 23 24 25 26 27 28 29 30 31 32 33 34 35 36 37 38 39

651
FTUS43 KDDC 212320
TAFHYS
TAF
KHYS 212320Z 2200/2224 18015G25KT P6SM FEW080
     FM220300 18015G25KT P6SM VCTS BKN080CB
     FM220500 20010KT P6SM SCT150=

USA.gov is the U.S. government's official web portal to all federal, state and local government web resources and services.